Time;durP1;ratioP1;P1;durP2;ratioP2;P2;SDS_P1;SDS_P2;PMS_P1;PMS_P2;Temp;Humidity;BMP_temperature;BMP_pressure;BME280_temperature;BME280_humidity;BME280_pressure;Samples;Min_cycle;Max_cycle;Signal;HPM_P1;HPM_P2
2022/11/18 00:04:08;;;;;;;45.90;33.13;;;;;;;6.86;95.53;96612.19;10289912;28;20073;-57
2022/11/18 00:09:07;;;;;;;41.63;30.70;;;;;;;6.78;95.11;96592.47;10290373;28;20072;-57
2022/11/18 00:14:19;;;;;;;44.95;32.28;;;;;;;6.75;96.12;96600.22;10290040;28;20475;-57
2022/11/18 00:19:20;;;;;;;42.90;30.83;;;;;;;6.72;95.55;96599.34;10289677;28;20057;-57
2022/11/18 00:24:19;;;;;;;59.20;34.08;;;;;;;6.66;96.00;96605.41;10289558;28;20072;-57
2022/11/18 00:29:19;;;;;;;54.50;35.35;;;;;;;6.55;96.41;96591.69;10289329;28;20065;-57
2022/11/18 00:34:18;;;;;;;58.85;37.15;;;;;;;6.56;97.32;96601.13;10289716;28;20068;-57
2022/11/18 00:39:19;;;;;;;48.10;31.33;;;;;;;6.44;98.22;96603.75;10289683;28;20425;-57
2022/11/18 00:44:17;;;;;;;45.05;30.27;;;;;;;6.20;97.04;96605.53;10289215;28;20098;-57
2022/11/18 00:49:16;;;;;;;40.45;26.50;;;;;;;6.05;97.72;96608.16;10289502;28;20125;-57
2022/11/18 00:54:16;;;;;;;43.75;22.20;;;;;;;6.00;96.83;96607.28;10289045;28;20064;-57
2022/11/18 00:59:15;;;;;;;33.53;20.85;;;;;;;5.93;97.35;96601.28;10289631;28;20084;-57
2022/11/18 01:04:14;;;;;;;30.90;20.92;;;;;;;5.73;96.83;96584.16;10295029;28;20100;-57
2022/11/18 01:09:13;;;;;;;39.03;22.83;;;;;;;5.75;96.90;96591.88;10296584;28;20053;-57
2022/11/18 01:14:12;;;;;;;32.05;20.73;;;;;;;5.69;96.75;96604.75;10295506;28;20038;-57
2022/11/18 01:19:11;;;;;;;39.80;25.00;;;;;;;5.55;97.12;96584.16;10295532;28;20030;-57
2022/11/18 01:24:10;;;;;;;38.75;24.88;;;;;;;5.53;97.60;96591.03;10295838;28;20030;-57
2022/11/18 01:29:09;;;;;;;41.42;25.23;;;;;;;5.48;98.09;96597.88;10295256;28;20036;-57
2022/11/18 01:34:08;;;;;;;40.90;26.80;;;;;;;5.47;98.81;96598.75;10295706;28;20520;-57
2022/11/18 01:39:07;;;;;;;45.40;27.48;;;;;;;5.48;98.64;96585.88;10295094;28;20454;-57
2022/11/18 01:44:44;;;;;;;43.58;26.10;;;;;;;5.51;98.76;96595.34;10294835;28;20476;-57
2022/11/18 01:49:43;;;;;;;53.50;32.47;;;;;;;5.46;99.29;96579.00;10294484;28;20053;-57
2022/11/18 01:54:47;;;;;;;45.83;26.75;;;;;;;5.43;99.38;96582.44;10294024;28;20084;-57
2022/11/18 01:59:49;;;;;;;45.65;27.58;;;;;;;5.37;99.99;96585.03;10295025;28;20593;-56
2022/11/18 02:04:51;;;;;;;41.00;26.35;;;;;;;5.39;100.00;96583.31;10294234;28;20490;-57
2022/11/18 02:09:52;;;;;;;41.95;25.13;;;;;;;5.43;100.00;96584.16;10294025;28;20068;-57
2022/11/18 02:14:51;;;;;;;42.63;25.85;;;;;;;5.45;99.74;96577.31;10293693;28;20511;-57
2022/11/18 02:20:09;;;;;;;;;;;;;;;5.47;99.52;96580.75;10294160;28;20534;-57
2022/11/18 02:25:13;;;;;;;;;;;;;;;5.44;99.92;96584.19;10293812;28;19945;-57
2022/11/18 02:30:14;;;;;;;;;;;;;;;5.50;99.67;96576.44;10293806;28;19951;-57
2022/11/18 02:35:27;;;;;;;;;;;;;;;5.56;99.66;96578.19;10293583;28;19945;-58
2022/11/18 02:40:30;;;;;;;;;;;;;;;5.52;99.99;96569.59;10292334;28;20387;-58
2022/11/18 02:45:30;;;;;;;;;;;;;;;5.58;100.00;96579.03;10293608;28;19948;-55
2022/11/18 02:50:30;;;;;;;;;;;;;;;5.64;99.54;96565.28;10293020;28;20391;-58
2022/11/18 02:55:30;;;;;;;;;;;;;;;5.66;98.99;96566.16;10293161;28;19971;-58
2022/11/18 03:00:29;;;;;;;;;;;;;;;5.60;99.68;96567.00;10293033;28;19981;-56
2022/11/18 03:05:45;;;;;;;;;;;;;;;5.56;99.35;96570.47;10292600;28;19996;-56
2022/11/18 03:11:19;;;;;;;;;;;;;;;5.50;99.34;96583.31;10292658;28;20402;-56
2022/11/18 03:16:22;;;;;;;;;;;;;;;5.33;99.88;96583.31;10288654;28;20418;-56
2022/11/18 03:21:30;;;;;;;;;;;;;;;5.25;99.57;96583.31;10291104;28;19971;-56
2022/11/18 03:26:35;;;;;;;;;;;;;;;5.21;99.34;96567.88;10291771;28;19945;-56
2022/11/18 03:31:36;;;;;;;;;;;;;;;5.03;99.50;96578.97;10291321;28;19955;-56
2022/11/18 03:36:39;;;;;;;;;;;;;;;4.85;99.22;96574.63;10291439;28;20381;-56
2022/11/18 03:41:42;;;;;;;;;;;;;;;4.86;98.98;96560.94;10291261;28;19960;-56
2022/11/18 03:46:44;;;;;;;;;;;;;;;4.69;99.18;96558.31;10291307;28;20015;-56
2022/11/18 03:51:48;;;;;;;;;;;;;;;4.61;99.31;96568.56;10291209;28;19953;-56
2022/11/18 03:56:51;;;;;;;;;;;;;;;4.53;99.14;96562.56;10291523;28;19967;-57
2022/11/18 04:01:55;;;;;;;;;;;;;;;4.45;99.17;96564.22;10290305;28;19998;-57
2022/11/18 04:06:57;;;;;;;;;;;;;;;4.40;98.92;96561.63;10291069;28;20375;-57
2022/11/18 04:12:03;;;;;;;;;;;;;;;4.31;99.57;96566.72;10290716;28;20394;-57
2022/11/18 04:17:15;;;;;;;;;;;;;;;4.25;99.91;96572.72;10290284;28;19948;-57
2022/11/18 04:22:14;;;;;;;;;;;;;;;4.25;99.68;96571.84;10290473;28;19992;-57
2022/11/18 04:27:13;;;;;;;;;;;;;;;4.23;100.00;96584.69;10291316;28;19937;-58
2022/11/18 04:32:11;;;;;;;;;;;;;;;3.97;100.00;96574.28;10290445;28;20012;-58
2022/11/18 04:37:10;;;;;;;;;;;;;;;3.90;100.00;96593.06;10292650;28;19960;-57
2022/11/18 04:42:09;;;;;;;;;;;;;;;3.83;100.00;96575.91;10298275;28;20001;-57
2022/11/18 04:47:08;;;;;;;;;;;;;;;3.77;100.00;96586.97;10297057;28;20264;-57
2022/11/18 04:52:06;;;;;;;;;;;;;;;3.81;100.00;96596.41;10297857;28;19937;-58
2022/11/18 04:57:05;;;;;;;;;;;;;;;3.71;100.00;96580.94;10297174;28;19917;-57
2022/11/18 05:02:04;;;;;;;;;;;;;;;3.72;100.00;96592.91;10297279;28;20345;-58
2022/11/18 05:07:03;;;;;;;;;;;;;;;3.82;100.00;96581.84;10296914;28;19967;-60
2022/11/18 05:17:19;;;;;;;;;;;;;;;3.90;100.00;96605.88;10297259;28;20409;-56
2022/11/18 05:22:18;;;;;;;;;;;;;;;3.96;100.00;96575.09;10297381;28;19909;-56
2022/11/18 05:27:17;;;;;;;;;;;;;;;4.05;100.00;96600.81;10295501;28;19909;-56
2022/11/18 05:32:16;;;;;;;;;;;;;;;4.12;100.00;96586.31;10295895;28;19905;-56
2022/11/18 05:37:14;;;;;;;;;;;;;;;4.10;100.00;96585.44;10296121;28;19913;-56
2022/11/18 05:47:58;;;;;;;;;;;;;;;3.86;100.00;96602.41;10238584;28;19966;-57
2022/11/18 05:52:49;;;;;;;;;;;;;;;3.78;100.00;96595.53;10232830;28;19964;-56
2022/11/18 05:57:48;;;;;;;;;;;;;;;3.72;100.00;96603.19;10295205;28;19914;-56
2022/11/18 06:04:47;;;;;;;57.45;31.17;;;;;;;3.58;100.00;96588.53;10264043;28;20445;-56
2022/11/18 06:09:50;;;;;;;52.40;31.17;;;;;;;3.54;100.00;96597.09;10272689;28;20479;-58
2022/11/18 06:14:55;;;;;;;70.45;33.83;;;;;;;3.65;100.00;96592.00;10284689;28;20057;-56
2022/11/18 06:19:56;;;;;;;64.03;33.08;;;;;;;3.84;100.00;96593.84;10284954;28;20054;-56
2022/11/18 06:24:56;;;;;;;81.30;41.60;;;;;;;4.05;100.00;96590.56;10283129;28;20065;-56
2022/11/18 06:29:54;;;;;;;88.00;48.13;;;;;;;4.18;100.00;96588.94;10279635;28;20114;-56
2022/11/18 06:34:53;;;;;;;94.45;53.45;;;;;;;4.41;100.00;96580.50;10280144;28;20078;-55
2022/11/18 06:39:52;;;;;;;93.35;57.53;;;;;;;4.57;100.00;96596.81;10283118;28;20037;-56
2022/11/18 06:44:51;;;;;;;102.18;61.50;;;;;;;4.78;100.00;96593.44;10281473;28;20050;-57
2022/11/18 06:49:50;;;;;;;102.85;62.08;;;;;;;4.97;100.00;96592.69;10279710;28;20032;-57
2022/11/18 06:54:49;;;;;;;109.18;65.45;;;;;;;5.06;100.00;96574.72;10279012;28;20038;-56
2022/11/18 06:59:48;;;;;;;105.22;62.05;;;;;;;5.25;100.00;96595.28;10278638;28;20567;-57
2022/11/18 07:04:47;;;;;;;87.80;49.55;;;;;;;5.44;100.00;96602.19;10282005;28;20657;-57
2022/11/18 07:09:46;;;;;;;51.38;33.55;;;;;;;5.45;100.00;96578.16;10281010;28;20105;-57
2022/11/18 07:14:45;;;;;;;65.10;36.83;;;;;;;5.65;100.00;96577.28;10261590;28;20022;-57
2022/11/18 07:19:44;;;;;;;56.88;35.15;;;;;;;5.91;100.00;96578.13;10255112;28;20062;-57
2022/11/18 07:24:43;;;;;;;43.95;25.45;;;;;;;6.06;100.00;96589.28;10256268;28;20030;-57
2022/11/18 07:29:42;;;;;;;37.78;25.60;;;;;;;6.28;100.00;96572.03;10254034;28;20459;-57
2022/11/18 07:34:41;;;;;;;36.92;24.58;;;;;;;6.51;100.00;96571.94;10252518;28;20109;-57
2022/11/18 07:39:40;;;;;;;37.58;23.90;;;;;;;6.72;100.00;96558.97;10251773;28;20069;-57
2022/11/18 07:44:39;;;;;;;37.63;25.75;;;;;;;6.99;100.00;96551.94;10251528;28;20018;-57
2022/11/18 07:49:38;;;;;;;35.63;24.48;;;;;;;7.28;100.00;96549.16;10252080;28;20046;-57
2022/11/18 07:54:37;;;;;;;40.25;26.15;;;;;;;7.50;100.00;96549.91;10252754;28;20101;-57
2022/11/18 07:59:36;;;;;;;29.73;21.08;;;;;;;7.72;99.67;96539.38;10251535;28;20040;-58
2022/11/18 08:04:36;;;;;;;32.38;23.40;;;;;;;7.87;99.41;96549.53;10226134;28;20038;-57
2022/11/18 08:09:35;;;;;;;28.73;18.92;;;;;;;8.26;98.77;96516.41;10240303;28;20066;-57
2022/11/18 08:14:34;;;;;;;24.35;16.88;;;;;;;8.37;97.69;96519.72;10251789;28;20027;-57
2022/11/18 08:19:34;;;;;;;23.75;17.83;;;;;;;8.67;97.30;96528.81;10250151;28;20049;-57
2022/11/18 08:24:33;;;;;;;23.70;16.10;;;;;;;8.96;96.47;96518.94;10250684;28;20097;-57
2022/11/18 08:29:32;;;;;;;19.83;14.45;;;;;;;9.27;96.09;96512.41;10251229;28;20026;-57
2022/11/18 08:34:31;;;;;;;21.17;15.18;;;;;;;9.79;95.58;96492.56;10250335;28;20100;-57
2022/11/18 08:39:30;;;;;;;20.05;14.52;;;;;;;10.29;95.17;96492.50;10250334;28;20034;-57
2022/11/18 08:44:32;;;;;;;23.40;16.55;;;;;;;10.57;91.70;96475.47;10250677;28;20030;-57
2022/11/18 08:49:31;;;;;;;22.90;17.13;;;;;;;10.78;90.72;96476.75;10251069;28;20130;-57
2022/11/18 08:54:30;;;;;;;28.13;17.98;;;;;;;11.01;90.20;96459.81;10251114;28;20028;-56
2022/11/18 08:59:29;;;;;;;25.35;17.58;;;;;;;11.31;89.56;96453.03;10249031;28;20142;-57
2022/11/18 09:04:28;;;;;;;23.90;17.45;;;;;;;11.49;87.65;96456.94;10250115;28;20042;-59
2022/11/18 09:09:27;;;;;;;37.15;27.98;;;;;;;11.56;85.70;96429.88;10250076;28;20050;-56
2022/11/18 09:14:26;;;;;;;34.33;23.75;;;;;;;11.78;85.04;96417.19;10249493;28;20034;-56
2022/11/18 09:19:25;;;;;;;30.83;20.90;;;;;;;12.03;84.93;96385.31;10249911;28;20036;-57
2022/11/18 09:24:24;;;;;;;37.78;22.23;;;;;;;12.27;83.06;96356.03;10249288;28;20076;-57
2022/11/18 09:29:25;;;;;;;29.52;19.80;;;;;;;12.62;82.04;96335.84;10249196;28;20022;-57
2022/11/18 09:34:24;;;;;;;29.13;18.40;;;;;;;13.14;81.18;96352.38;10249305;28;20061;-56
2022/11/18 09:39:24;;;;;;;23.65;14.98;;;;;;;13.59;78.86;96334.38;10248007;28;20026;-57
2022/11/18 09:44:53;;;;;;;13.65;7.00;;;;;;;14.12;74.12;96328.94;10248636;28;20081;-56
2022/11/18 09:49:55;;;;;;;6.97;3.40;;;;;;;14.75;66.47;96316.91;10248373;28;20061;-57
2022/11/18 09:54:54;;;;;;;8.93;3.22;;;;;;;15.31;65.91;96323.28;10249338;28;20057;-58
2022/11/18 09:59:54;;;;;;;3.90;2.40;;;;;;;15.92;61.98;96324.16;10248829;28;20077;-57
2022/11/18 10:05:14;;;;;;;5.30;3.10;;;;;;;16.46;59.63;96320.75;10249072;28;20900;-57
2022/11/18 10:10:28;;;;;;;5.72;3.25;;;;;;;16.96;56.58;96300.06;10248420;28;20074;-58
2022/11/18 10:16:03;;;;;;;5.25;2.88;;;;;;;17.18;54.48;96295.44;10241768;28;20129;-57
2022/11/18 10:21:22;;;;;;;4.32;3.17;;;;;;;17.33;54.02;96289.44;10163991;28;20113;-57
2022/11/18 10:26:39;;;;;;;6.00;3.03;;;;;;;17.66;53.46;96293.84;10249198;28;20057;-57
2022/11/18 10:31:51;;;;;;;3.78;2.40;;;;;;;17.92;52.28;96284.59;10239100;28;20719;-56
2022/11/18 10:37:02;;;;;;;6.50;2.83;;;;;;;18.15;51.76;96286.00;10249169;28;20142;-56
2022/11/18 10:42:05;;;;;;;5.95;2.58;;;;;;;18.24;50.86;96284.63;10248499;28;20061;-56
2022/11/18 10:47:23;;;;;;;4.70;2.80;;;;;;;18.36;50.09;96272.59;10250307;28;20449;-57
2022/11/18 10:52:22;;;;;;;6.78;2.47;;;;;;;18.31;48.78;96258.88;10257053;28;20661;-57
2022/11/18 10:57:24;;;;;;;7.53;2.67;;;;;;;18.37;49.41;96261.16;10257500;28;20496;-57
2022/11/18 11:02:30;;;;;;;7.70;2.80;;;;;;;18.52;49.70;96262.91;10255600;28;20081;-56
2022/11/18 11:07:31;;;;;;;3.90;2.20;;;;;;;18.47;47.99;96254.44;10257191;28;20476;-57
2022/11/18 11:12:33;;;;;;;5.93;2.75;;;;;;;18.48;47.60;96255.28;10270713;28;20062;-56
2022/11/18 11:17:39;;;;;;;3.90;2.80;;;;;;;18.42;47.16;96240.72;10256263;28;20062;-56
2022/11/18 11:22:38;;;;;;;5.95;2.38;;;;;;;18.52;46.89;96227.91;10255394;28;20479;-56
2022/11/18 11:27:55;;;;;;;6.60;2.88;;;;;;;18.64;46.62;96240.34;10256877;28;20405;-56
2022/11/18 11:33:00;;;;;;;6.63;2.78;;;;;;;18.69;46.00;96243.59;10254840;28;20069;-57
2022/11/18 11:38:04;;;;;;;3.92;2.35;;;;;;;18.86;46.37;96237.38;10254779;28;20955;-57
2022/11/18 11:43:30;;;;;;;9.85;2.67;;;;;;;18.96;45.85;96237.66;10249594;28;20121;-56
2022/11/18 11:48:39;;;;;;;4.75;2.25;;;;;;;18.98;45.53;96239.25;10250711;28;20180;-56
2022/11/18 11:53:43;;;;;;;;;;;;;;;18.97;45.19;96221.81;10250663;28;20069;-56
2022/11/18 11:59:01;;;;;;;3.58;2.10;;;;;;;18.97;44.43;96207.81;10251357;28;19961;-57
2022/11/18 12:04:21;;;;;;;5.88;2.47;;;;;;;19.00;44.14;96211.09;10251909;28;20078;-56
2022/11/18 12:09:32;;;;;;;6.43;2.50;;;;;;;19.07;44.29;96203.72;10252581;28;20071;-58
2022/11/18 12:14:47;;;;;;;6.65;2.67;;;;;;;19.20;44.14;96211.69;10252059;28;20073;-56
2022/11/18 12:19:46;;;;;;;5.03;2.40;;;;;;;19.21;43.88;96216.88;10223734;28;20484;-57
2022/11/18 12:24:45;;;;;;;6.18;2.60;;;;;;;19.18;44.78;96198.66;10214692;28;20468;-58
2022/11/18 12:29:47;;;;;;;5.70;2.58;;;;;;;19.20;44.72;96194.13;10251217;28;20397;-58
2022/11/18 12:34:57;;;;;;;6.30;2.58;;;;;;;19.00;44.24;96184.81;10250777;28;20062;-55
2022/11/18 12:39:58;;;;;;;4.18;2.42;;;;;;;18.80;44.15;96174.63;10250958;28;20485;-56
2022/11/18 12:45:35;;;;;;;7.25;3.00;;;;;;;18.66;44.98;96171.94;10250854;28;20066;-55
2022/11/18 12:50:49;;;;;;;4.30;2.75;;;;;;;18.65;45.41;96167.66;10250489;28;20058;-57
2022/11/18 12:55:48;;;;;;;3.40;2.60;;;;;;;18.65;45.84;96146.63;10250249;28;20058;-56
2022/11/18 13:00:53;;;;;;;5.25;3.22;;;;;;;18.72;45.66;96137.47;10249641;28;20104;-57
2022/11/18 13:06:00;;;;;;;9.50;3.10;;;;;;;18.88;45.14;96140.00;10249443;28;20069;-56
2022/11/18 13:27:51;;;;;;;6.38;4.82;;;;;;;18.39;46.17;96109.59;10250026;28;20077;-57
2022/11/18 13:32:53;;;;;;;83.20;60.45;;;;;;;18.25;46.58;96127.94;10248900;28;20062;-56
2022/11/18 13:37:58;;;;;;;21.52;10.35;;;;;;;18.12;47.22;96130.41;10247814;28;20531;-56
2022/11/18 13:42:57;;;;;;;9.20;5.97;;;;;;;17.79;47.68;96138.41;10247996;28;20061;-56
2022/11/18 13:48:06;;;;;;;8.40;4.43;;;;;;;17.58;48.24;96130.75;10249035;28;20034;-56
2022/11/18 13:53:20;;;;;;;7.97;5.20;;;;;;;17.52;48.80;96112.75;10248090;28;20061;-56
2022/11/18 13:58:36;;;;;;;6.38;4.32;;;;;;;17.40;49.04;96106.38;10223449;28;20078;-56
2022/11/18 14:03:45;;;;;;;7.57;4.15;;;;;;;17.34;49.21;96102.31;10245490;28;20077;-56
2022/11/18 14:08:44;;;;;;;15.80;10.07;;;;;;;17.23;49.07;96107.28;10248150;28;20065;-56
2022/11/18 14:13:48;;;;;;;;;;;;;;;17.17;49.00;96104.16;10248694;28;20044;-56
2022/11/18 14:18:50;;;;;;;9.25;6.25;;;;;;;17.01;48.99;96083.19;10248788;28;19949;-56
2022/11/18 14:23:49;;;;;;;10.43;6.13;;;;;;;16.77;49.34;96086.16;10251898;28;20074;-56
2022/11/18 14:28:57;;;;;;;6.03;3.83;;;;;;;16.60;49.51;96091.41;10255528;28;20034;-56
2022/11/18 14:34:17;;;;;;;6.32;3.40;;;;;;;16.48;49.54;96080.63;10256434;28;20072;-58
2022/11/18 14:39:18;;;;;;;;;;;;;;;16.41;49.93;96094.13;10256604;28;20092;-57
2022/11/18 14:44:19;;;;;;;5.03;4.03;;;;;;;16.21;50.40;96089.91;10254093;28;19980;-58
2022/11/18 14:49:22;;;;;;;5.25;3.65;;;;;;;16.16;50.59;96087.53;10256865;28;20093;-58
2022/11/18 14:54:23;;;;;;;6.57;3.40;;;;;;;16.07;50.81;96094.03;10254874;28;20074;-57
2022/11/18 14:59:22;;;;;;;6.68;3.72;;;;;;;16.02;50.67;96098.66;10253682;28;20070;-57
2022/11/18 15:04:21;;;;;;;7.20;3.53;;;;;;;15.97;51.31;96082.31;10254410;28;20084;-56
2022/11/18 15:09:20;;;;;;;;;;;;;;;15.90;52.03;96074.84;10255516;28;20074;-56
2022/11/18 15:14:19;;;;;;;8.53;3.87;;;;;;;15.77;52.70;96090.28;10253576;28;20005;-56
2022/11/18 15:19:18;;;;;;;;;;;;;;;15.72;53.00;96084.44;10251142;28;20126;-56
2022/11/18 15:24:18;;;;;;;12.00;7.63;;;;;;;15.73;53.19;96093.97;10250715;28;19952;-56
2022/11/18 15:29:22;;;;;;;12.57;4.82;;;;;;;15.67;53.85;96126.50;10252482;28;20069;-56
2022/11/18 15:34:21;;;;;;;12.95;7.25;;;;;;;15.65;54.10;96126.56;10252922;28;20069;-56
2022/11/18 15:39:20;;;;;;;;;;;;;;;15.61;54.42;96119.78;10252936;28;20062;-56
2022/11/18 15:44:19;;;;;;;7.60;3.40;;;;;;;15.52;55.11;96127.22;10251938;28;20008;-59
2022/11/18 15:49:18;;;;;;;12.48;4.13;;;;;;;15.48;55.58;96126.47;10253128;28;20142;-58
2022/11/18 15:54:17;;;;;;;;;;;;;;;15.42;57.35;96118.94;10252475;28;20066;-58
2022/11/18 15:59:16;;;;;;;3.85;3.22;;;;;;;15.30;60.30;96106.47;10252869;28;19933;-57
2022/11/18 16:04:17;;;;;;;7.63;4.68;;;;;;;15.05;62.45;96094.50;10252401;28;20077;-58
2022/11/18 16:09:16;;;;;;;6.93;4.70;;;;;;;14.91;62.61;96063.78;10252100;28;20096;-57
2022/11/18 16:14:18;;;;;;;6.53;4.30;;;;;;;14.85;62.26;96060.59;10252106;28;20435;-57
2022/11/18 16:19:20;;;;;;;7.65;4.35;;;;;;;14.74;62.29;96074.16;10252129;28;20073;-56
2022/11/18 16:24:22;;;;;;;8.35;4.18;;;;;;;14.72;61.70;96063.75;10250383;28;20122;-57
2022/11/18 16:29:22;;;;;;;7.75;4.63;;;;;;;14.63;61.83;96051.91;10252337;28;20185;-57
2022/11/18 16:34:26;;;;;;;8.00;5.03;;;;;;;14.74;61.33;96058.47;10251479;28;20073;-56
2022/11/18 16:39:26;;;;;;;7.35;3.83;;;;;;;14.78;60.96;96075.69;10251604;28;20077;-57
2022/11/18 16:44:26;;;;;;;9.07;5.50;;;;;;;14.83;60.18;96092.03;10250057;28;20062;-56
2022/11/18 16:49:26;;;;;;;7.50;4.65;;;;;;;14.89;59.91;96107.41;10265643;28;20092;-57
2022/11/18 16:54:28;;;;;;;7.57;4.82;;;;;;;14.94;60.07;96125.47;10248710;28;20485;-57
2022/11/18 16:59:29;;;;;;;6.68;3.55;;;;;;;14.94;61.71;96159.44;10250921;28;20089;-57
2022/11/18 17:04:28;;;;;;;6.57;4.03;;;;;;;14.90;64.88;96163.94;10250405;28;20534;-56
2022/11/18 17:09:27;;;;;;;8.45;5.13;;;;;;;14.82;66.93;96168.66;10249637;28;20080;-56
2022/11/18 17:14:27;;;;;;;;;;;;;;;14.69;68.13;96163.09;10249650;28;20026;-56
2022/11/18 17:19:26;;;;;;;10.07;6.45;;;;;;;14.59;69.01;96152.19;10249430;28;20418;-56
2022/11/18 17:24:25;;;;;;;12.48;7.57;;;;;;;14.47;70.85;96138.81;10247976;28;20045;-57
2022/11/18 17:29:24;;;;;;;11.98;6.85;;;;;;;14.34;70.11;96128.03;10249385;28;20503;-56
2022/11/18 17:34:23;;;;;;;;;;;;;;;14.27;71.02;96117.00;10249574;28;20485;-56
2022/11/18 17:39:22;;;;;;;26.13;16.98;;;;;;;14.16;71.03;96100.94;10248480;28;20425;-57
2022/11/18 17:44:21;;;;;;;16.17;9.90;;;;;;;14.09;71.35;96092.53;10248218;28;20022;-57
2022/11/18 17:49:21;;;;;;;;;;;;;;;14.07;70.84;96080.47;10250019;28;20073;-57
2022/11/18 17:54:20;;;;;;;10.30;8.20;;;;;;;14.01;71.13;96081.59;10248163;28;19953;-57
2022/11/18 17:59:21;;;;;;;9.18;6.00;;;;;;;14.02;70.43;96072.00;10248249;28;20065;-57
2022/11/18 18:04:21;;;;;;;6.32;3.65;;;;;;;13.94;69.69;96062.72;10248119;28;20089;-57
2022/11/18 18:09:23;;;;;;;5.15;3.10;;;;;;;13.96;68.86;96047.88;10247415;28;20538;-57
2022/11/18 18:14:22;;;;;;;6.97;4.88;;;;;;;14.03;67.79;96053.69;10247994;28;20318;-57
2022/11/18 18:19:22;;;;;;;8.93;6.13;;;;;;;14.15;67.11;96065.34;10249103;28;20113;-57
2022/11/18 18:24:21;;;;;;;6.50;4.47;;;;;;;14.23;66.32;96065.03;10247422;28;20066;-57
2022/11/18 18:29:20;;;;;;;6.88;3.50;;;;;;;14.36;66.13;96061.81;10247948;28;20062;-57
2022/11/18 18:34:19;;;;;;;;;;;;;;;14.62;63.83;96052.00;10249874;28;20069;-57
2022/11/18 18:39:17;;;;;;;6.07;4.57;;;;;;;14.88;62.37;96061.31;10247451;28;19965;-57
2022/11/18 18:44:16;;;;;;;8.00;4.43;;;;;;;15.08;61.62;96075.22;10248115;28;20054;-57
2022/11/18 18:49:19;;;;;;;16.67;10.20;;;;;;;15.19;61.37;96083.41;10246306;28;20034;-57
2022/11/18 18:54:19;;;;;;;13.20;8.52;;;;;;;15.25;61.07;96091.81;10246985;28;20073;-57
2022/11/18 18:59:18;;;;;;;13.27;8.82;;;;;;;15.28;61.14;96090.84;10247175;28;20077;-57
2022/11/18 19:04:16;;;;;;;;;;;;;;;15.19;61.44;96104.31;10247432;28;20042;-57
2022/11/18 19:09:16;;;;;;;11.25;5.07;;;;;;;15.20;61.14;96125.16;10248727;28;20008;-57
2022/11/18 19:14:17;;;;;;;5.38;3.83;;;;;;;15.15;61.49;96119.28;10253849;28;20066;-57
2022/11/18 19:20:32;;;;;;;7.00;4.35;;;;;;;15.13;61.95;96142.03;10254458;28;20076;-57
2022/11/18 19:24:41;;;;;;;12.27;8.13;;;;;;;15.07;63.37;96171.03;10252940;28;20069;-57
2022/11/18 19:29:40;;;;;;;9.88;7.32;;;;;;;14.85;65.27;96189.44;10255074;28;20484;-58
2022/11/18 19:34:39;;;;;;;;;;;;;;;14.64;66.84;96196.38;10255022;28;20493;-57
2022/11/18 19:39:38;;;;;;;8.20;5.65;;;;;;;14.45;68.06;96203.25;10252914;28;19996;-57
2022/11/18 19:44:37;;;;;;;6.05;4.55;;;;;;;14.39;68.49;96222.63;10250708;28;20046;-57
2022/11/18 19:49:36;;;;;;;9.75;5.97;;;;;;;14.25;69.65;96231.03;10253418;28;20077;-58
2022/11/18 19:54:35;;;;;;;;;;;;;;;14.15;71.36;96230.53;10254210;28;20085;-57
2022/11/18 19:59:34;;;;;;;16.45;11.23;;;;;;;13.95;72.59;96243.50;10252662;28;19909;-57
2022/11/18 20:04:33;;;;;;;12.93;9.18;;;;;;;13.87;73.63;96243.81;10253291;28;20050;-57
2022/11/18 20:09:32;;;;;;;34.45;21.70;;;;;;;13.81;74.44;96264.06;10252077;28;20026;-57
2022/11/18 20:14:31;;;;;;;20.30;12.23;;;;;;;13.62;75.80;96282.97;10250828;28;20088;-57
2022/11/18 20:19:30;;;;;;;207.13;103.78;;;;;;;13.23;79.10;96301.69;10250773;28;20053;-58
2022/11/18 20:24:29;;;;;;;11.40;7.80;;;;;;;12.85;82.50;96331.66;10251007;28;20038;-58
2022/11/18 20:29:28;;;;;;;18.13;13.40;;;;;;;12.70;84.53;96318.25;10252014;28;20065;-58
2022/11/18 20:34:27;;;;;;;22.23;16.67;;;;;;;12.61;86.36;96323.75;10251230;28;20105;-58
2022/11/18 20:39:27;;;;;;;24.48;16.73;;;;;;;12.57;87.77;96337.75;10251153;28;20034;-58
2022/11/18 20:44:26;;;;;;;14.05;10.75;;;;;;;12.60;88.66;96309.03;10249613;28;20073;-58
2022/11/18 20:49:25;;;;;;;28.38;19.67;;;;;;;12.57;89.74;96342.94;10250944;28;20121;-58
2022/11/18 20:54:24;;;;;;;21.83;15.02;;;;;;;12.58;91.36;96335.97;10250314;28;20026;-57
2022/11/18 20:59:23;;;;;;;17.27;13.20;;;;;;;12.54;92.17;96348.25;10251656;28;20483;-58
2022/11/18 21:04:22;;;;;;;16.10;11.43;;;;;;;12.53;92.81;96336.13;10250281;28;20085;-58
2022/11/18 21:09:21;;;;;;;13.50;10.00;;;;;;;12.49;93.77;96345.78;10249625;28;20092;-57
2022/11/18 21:14:23;;;;;;;25.75;16.52;;;;;;;12.45;94.47;96327.72;10249876;28;20026;-57
2022/11/18 21:19:22;;;;;;;23.55;14.60;;;;;;;12.27;95.99;96324.81;10251151;28;20077;-56
2022/11/18 21:24:22;;;;;;;17.70;12.90;;;;;;;12.08;97.65;96339.22;10249990;28;20074;-58
2022/11/18 21:29:23;;;;;;;25.27;19.80;;;;;;;12.08;97.44;96354.81;10251357;28;20065;-58
2022/11/18 21:34:23;;;;;;;27.38;20.52;;;;;;;12.06;97.41;96351.41;10250473;28;20145;-58
2022/11/18 21:39:23;;;;;;;29.77;22.35;;;;;;;12.05;98.25;96378.31;10250482;28;20106;-58
2022/11/18 21:44:23;;;;;;;27.55;21.65;;;;;;;12.05;98.14;96373.97;10250648;28;20515;-57
2022/11/18 21:49:22;;;;;;;28.50;21.23;;;;;;;12.12;98.05;96387.63;10250356;28;20492;-57
2022/11/18 21:54:21;;;;;;;;;;;;;;;12.06;98.47;96399.09;10251001;28;20528;-57
2022/11/18 21:59:21;;;;;;;36.13;22.77;;;;;;;11.99;98.74;96391.47;10250089;28;19960;-58
2022/11/18 22:09:37;;;;;;;29.85;22.75;;;;;;;12.10;99.16;96399.81;10250708;28;20065;-58
2022/11/18 22:14:36;;;;;;;29.38;22.92;;;;;;;12.08;99.50;96404.22;10249805;28;20030;-58
2022/11/18 22:19:35;;;;;;;33.80;26.40;;;;;;;12.05;99.46;96409.50;10250083;28;20033;-57
2022/11/18 22:24:34;;;;;;;31.27;21.80;;;;;;;12.04;99.28;96415.59;10249885;28;20035;-57
2022/11/18 22:29:33;;;;;;;22.70;16.25;;;;;;;12.03;99.91;96425.16;10249630;28;20037;-58
2022/11/18 22:34:32;;;;;;;20.05;14.98;;;;;;;12.07;99.93;96431.97;10264017;28;20068;-57
2022/11/18 22:39:31;;;;;;;29.02;19.30;;;;;;;12.11;99.91;96435.34;10249750;28;20035;-57
2022/11/18 22:44:30;;;;;;;23.83;14.52;;;;;;;12.18;99.78;96443.81;10252328;28;20034;-57
2022/11/18 22:49:29;;;;;;;38.72;27.55;;;;;;;12.18;100.00;96472.41;10257553;28;20065;-57
2022/11/18 22:54:28;;;;;;;33.85;25.25;;;;;;;12.12;100.00;96483.84;10256913;28;20022;-57
2022/11/18 22:59:27;;;;;;;37.25;28.13;;;;;;;12.11;100.00;96476.97;10256422;28;20099;-57
2022/11/18 23:04:26;;;;;;;40.17;29.77;;;;;;;11.94;100.00;96498.19;10256024;28;20046;-57
2022/11/18 23:09:25;;;;;;;43.33;29.35;;;;;;;11.97;100.00;96508.53;10256242;28;20467;-57
2022/11/18 23:14:24;;;;;;;39.72;28.13;;;;;;;11.97;100.00;96525.84;10255863;28;20105;-57
2022/11/18 23:19:23;;;;;;;34.63;27.33;;;;;;;12.00;100.00;96524.03;10252511;28;20488;-57
2022/11/18 23:24:22;;;;;;;30.80;22.67;;;;;;;12.03;100.00;96521.34;10251858;28;20411;-57
2022/11/18 23:29:21;;;;;;;26.33;21.08;;;;;;;11.97;100.00;96518.06;10251931;28;20030;-57
2022/11/18 23:34:20;;;;;;;30.98;23.25;;;;;;;11.98;100.00;96520.63;10254496;28;20042;-57
2022/11/18 23:39:19;;;;;;;22.00;15.27;;;;;;;11.98;100.00;96522.38;10255512;28;20487;-58
2022/11/18 23:44:43;;;;;;;15.68;10.23;;;;;;;11.98;100.00;96536.22;10254521;28;20037;-57
2022/11/18 23:49:37;;;;;;;11.10;7.68;;;;;;;11.98;100.00;96540.56;10254721;28;20066;-57
2022/11/18 23:54:36;;;;;;;11.25;7.20;;;;;;;12.03;100.00;96549.94;10254785;28;20114;-57
2022/11/18 23:59:35;;;;;;;8.65;5.00;;;;;;;12.07;100.00;96561.97;10254095;28;20034;-57
